Terminal Aerodrome Forecast
Issued by NWS Brownsville, TX

Home | Current Version | Previous Version | Text Only | Print | Product List | Glossary On
Versions: 1 2 3 4 5 6 7 8 9 10 11 12 13 14 15 16 17 18 19 20
000
FTUS44 KBRO 012344
TAFBRO
TAF
KBRO 012344Z 0200/0224 06011KT P6SM SCT015
     FM020300 08008KT 6SM HZ OVC012
     FM020600 03004KT 4SM BR OVC009
     FM021100 36007KT 5SM BR OVC012
      TEMPO 0211/0214 SCT012 OVC030
     FM021700 36013G20KT P6SM OVC018 PROB30 0217/0221 4SM -SHRA=

USA.gov is the U.S. government's official web portal to all federal, state and local government web resources and services.